Terminal Aerodrome Forecast
Issued by NWS

Home | Current Version | Previous Version | Text Only | Print | Product List | Glossary On
Versions: 1 2 3 4 5 6 7 8 9 10 11 12 13 14 15 16 17 18 19 20 21 22 23 24 25 26 27 28 29 30 31
000
FTUS43 KGRB 261125
TAFRHI
TAF
KRHI 261125Z 2612/2712 22003KT 6SM BR SCT006 BKN150
      TEMPO 2612/2614 2SM BR BKN006
     FM261400 22007KT P6SM BKN015 BKN100
     FM261700 22007KT P6SM SCT035 BKN070
     FM261800 09005KT P6SM -SHRA BKN035 OVC070
     FM262100 07008KT 4SM SHRA BR BKN015 OVC035
     FM262300 04010KT 3SM SHRA BR OVC009
      TEMPO 2700/2704 1SM +RA BR BKN005
     FM270400 34005KT 3SM SHRA BR OVC005
     FM270900 32007KT 4SM -RA SCT005 OVC009=

USA.gov is the U.S. government's official web portal to all federal, state and local government web resources and services.